sensor_id;sensor_type;location;lat;lon;timestamp;temperature;humidity
59975;DHT22;62136;-35.664;-63.766;2022-12-13T00:01:27;29.00;30.70
59975;DHT22;62136;-35.664;-63.766;2022-12-13T00:03:56;29.00;30.70
59975;DHT22;62136;-35.664;-63.766;2022-12-13T00:06:23;28.90;30.50
59975;DHT22;62136;-35.664;-63.766;2022-12-13T00:08:51;28.90;30.60
59975;DHT22;62136;-35.664;-63.766;2022-12-13T00:11:18;28.90;30.70
59975;DHT22;62136;-35.664;-63.766;2022-12-13T00:13:46;28.80;30.60
59975;DHT22;62136;-35.664;-63.766;2022-12-13T00:16:18;28.80;30.70
59975;DHT22;62136;-35.664;-63.766;2022-12-13T00:18:49;28.80;30.80
59975;DHT22;62136;-35.664;-63.766;2022-12-13T00:21:18;28.80;30.80
59975;DHT22;62136;-35.664;-63.766;2022-12-13T00:23:46;28.80;30.80
59975;DHT22;62136;-35.664;-63.766;2022-12-13T00:26:16;28.70;30.70
59975;DHT22;62136;-35.664;-63.766;2022-12-13T00:28:43;28.70;30.80
59975;DHT22;62136;-35.664;-63.766;2022-12-13T00:31:11;28.70;30.80
59975;DHT22;62136;-35.664;-63.766;2022-12-13T00:33:38;28.70;30.70
59975;DHT22;62136;-35.664;-63.766;2022-12-13T00:36:06;28.60;30.80
59975;DHT22;62136;-35.664;-63.766;2022-12-13T00:38:34;28.60;30.80
59975;DHT22;62136;-35.664;-63.766;2022-12-13T00:41:12;28.60;30.80
59975;DHT22;62136;-35.664;-63.766;2022-12-13T00:43:40;28.60;30.80
59975;DHT22;62136;-35.664;-63.766;2022-12-13T00:46:17;28.60;30.80
59975;DHT22;62136;-35.664;-63.766;2022-12-13T00:48:49;28.60;30.90
59975;DHT22;62136;-35.664;-63.766;2022-12-13T00:51:16;28.60;31.00
59975;DHT22;62136;-35.664;-63.766;2022-12-13T00:53:44;28.50;30.80
59975;DHT22;62136;-35.664;-63.766;2022-12-13T00:56:16;28.50;31.00
59975;DHT22;62136;-35.664;-63.766;2022-12-13T00:58:43;28.50;30.90
59975;DHT22;62136;-35.664;-63.766;2022-12-13T01:01:12;28.50;30.90
59975;DHT22;62136;-35.664;-63.766;2022-12-13T01:03:40;28.50;31.10
59975;DHT22;62136;-35.664;-63.766;2022-12-13T01:06:10;28.50;31.00
59975;DHT22;62136;-35.664;-63.766;2022-12-13T01:08:38;28.40;31.00
59975;DHT22;62136;-35.664;-63.766;2022-12-13T01:11:06;28.40;31.00
59975;DHT22;62136;-35.664;-63.766;2022-12-13T01:13:34;28.40;31.00
59975;DHT22;62136;-35.664;-63.766;2022-12-13T01:16:03;28.40;31.20
59975;DHT22;62136;-35.664;-63.766;2022-12-13T01:18:30;28.40;31.10
59975;DHT22;62136;-35.664;-63.766;2022-12-13T01:21:03;28.30;31.10
59975;DHT22;62136;-35.664;-63.766;2022-12-13T01:23:32;28.40;31.00
59975;DHT22;62136;-35.664;-63.766;2022-12-13T01:26:02;28.30;31.00
59975;DHT22;62136;-35.664;-63.766;2022-12-13T01:28:30;28.30;31.10
59975;DHT22;62136;-35.664;-63.766;2022-12-13T01:31:01;28.30;31.00
59975;DHT22;62136;-35.664;-63.766;2022-12-13T01:33:30;28.30;31.10
59975;DHT22;62136;-35.664;-63.766;2022-12-13T01:36:01;28.20;31.30
59975;DHT22;62136;-35.664;-63.766;2022-12-13T01:38:28;28.20;31.40
59975;DHT22;62136;-35.664;-63.766;2022-12-13T01:40:56;28.20;31.20
59975;DHT22;62136;-35.664;-63.766;2022-12-13T01:46:03;28.20;31.30
59975;DHT22;62136;-35.664;-63.766;2022-12-13T01:48:35;28.20;31.40
59975;DHT22;62136;-35.664;-63.766;2022-12-13T01:51:06;28.10;31.50
59975;DHT22;62136;-35.664;-63.766;2022-12-13T01:53:36;28.10;31.50
59975;DHT22;62136;-35.664;-63.766;2022-12-13T01:56:09;28.10;31.60
59975;DHT22;62136;-35.664;-63.766;2022-12-13T01:58:38;28.10;31.60
59975;DHT22;62136;-35.664;-63.766;2022-12-13T02:01:06;28.10;31.60
59975;DHT22;62136;-35.664;-63.766;2022-12-13T02:03:33;28.00;31.50
59975;DHT22;62136;-35.664;-63.766;2022-12-13T02:06:17;28.00;31.70
59975;DHT22;62136;-35.664;-63.766;2022-12-13T02:08:45;28.00;31.70
59975;DHT22;62136;-35.664;-63.766;2022-12-13T02:11:13;28.00;31.60
59975;DHT22;62136;-35.664;-63.766;2022-12-13T02:13:50;28.00;31.70
59975;DHT22;62136;-35.664;-63.766;2022-12-13T02:25:09;27.90;31.80
59975;DHT22;62136;-35.664;-63.766;2022-12-13T02:30:41;27.80;31.80
59975;DHT22;62136;-35.664;-63.766;2022-12-13T02:36:11;27.80;32.00
59975;DHT22;62136;-35.664;-63.766;2022-12-13T02:39:16;27.80;31.80
59975;DHT22;62136;-35.664;-63.766;2022-12-13T02:41:55;27.80;32.00
59975;DHT22;62136;-35.664;-63.766;2022-12-13T02:44:33;27.80;32.10
59975;DHT22;62136;-35.664;-63.766;2022-12-13T02:47:17;27.80;32.10
59975;DHT22;62136;-35.664;-63.766;2022-12-13T02:49:49;27.70;32.10
59975;DHT22;62136;-35.664;-63.766;2022-12-13T02:52:19;27.70;32.20
59975;DHT22;62136;-35.664;-63.766;2022-12-13T02:54:54;27.70;32.10
59975;DHT22;62136;-35.664;-63.766;2022-12-13T02:57:33;27.70;32.20
59975;DHT22;62136;-35.664;-63.766;2022-12-13T03:00:22;27.70;32.30
59975;DHT22;62136;-35.664;-63.766;2022-12-13T03:03:19;27.70;32.20
59975;DHT22;62136;-35.664;-63.766;2022-12-13T03:11:57;27.60;32.30
59975;DHT22;62136;-35.664;-63.766;2022-12-13T03:15:12;27.60;32.30
59975;DHT22;62136;-35.664;-63.766;2022-12-13T03:17:55;27.60;32.30
59975;DHT22;62136;-35.664;-63.766;2022-12-13T03:20:26;27.50;32.20
59975;DHT22;62136;-35.664;-63.766;2022-12-13T03:22:57;27.50;32.30
59975;DHT22;62136;-35.664;-63.766;2022-12-13T03:25:26;27.50;32.20
59975;DHT22;62136;-35.664;-63.766;2022-12-13T03:27:55;27.50;32.40
59975;DHT22;62136;-35.664;-63.766;2022-12-13T03:30:22;27.50;32.40
59975;DHT22;62136;-35.664;-63.766;2022-12-13T03:32:49;27.50;32.40
59975;DHT22;62136;-35.664;-63.766;2022-12-13T03:35:16;27.50;32.50
59975;DHT22;62136;-35.664;-63.766;2022-12-13T03:37:43;27.50;32.40
59975;DHT22;62136;-35.664;-63.766;2022-12-13T03:40:14;27.40;32.30
59975;DHT22;62136;-35.664;-63.766;2022-12-13T03:42:44;27.50;32.40
59975;DHT22;62136;-35.664;-63.766;2022-12-13T03:45:11;27.40;32.50
59975;DHT22;62136;-35.664;-63.766;2022-12-13T03:47:38;27.40;32.50
59975;DHT22;62136;-35.664;-63.766;2022-12-13T03:50:05;27.40;32.50
59975;DHT22;62136;-35.664;-63.766;2022-12-13T03:52:33;27.40;32.50
59975;DHT22;62136;-35.664;-63.766;2022-12-13T03:55:00;27.40;32.50
59975;DHT22;62136;-35.664;-63.766;2022-12-13T03:57:27;27.40;32.60
59975;DHT22;62136;-35.664;-63.766;2022-12-13T03:59:54;27.40;32.80
59975;DHT22;62136;-35.664;-63.766;2022-12-13T04:02:21;27.30;32.70
59975;DHT22;62136;-35.664;-63.766;2022-12-13T04:04:51;27.30;32.60
59975;DHT22;62136;-35.664;-63.766;2022-12-13T04:07:18;27.30;32.60
59975;DHT22;62136;-35.664;-63.766;2022-12-13T04:09:45;27.30;32.70
59975;DHT22;62136;-35.664;-63.766;2022-12-13T04:12:12;27.30;32.60
59975;DHT22;62136;-35.664;-63.766;2022-12-13T04:14:58;27.30;32.70
59975;DHT22;62136;-35.664;-63.766;2022-12-13T04:17:25;27.30;32.80
59975;DHT22;62136;-35.664;-63.766;2022-12-13T04:19:52;27.20;32.60
59975;DHT22;62136;-35.664;-63.766;2022-12-13T04:22:19;27.20;32.70
59975;DHT22;62136;-35.664;-63.766;2022-12-13T04:24:46;27.20;32.70
59975;DHT22;62136;-35.664;-63.766;2022-12-13T04:27:13;27.10;32.60
59975;DHT22;62136;-35.664;-63.766;2022-12-13T04:29:40;27.10;32.70
59975;DHT22;62136;-35.664;-63.766;2022-12-13T04:32:07;27.20;32.80
59975;DHT22;62136;-35.664;-63.766;2022-12-13T04:34:34;27.10;32.80
59975;DHT22;62136;-35.664;-63.766;2022-12-13T04:37:01;27.10;32.80
59975;DHT22;62136;-35.664;-63.766;2022-12-13T04:39:28;27.10;32.80
59975;DHT22;62136;-35.664;-63.766;2022-12-13T04:41:55;27.10;32.80
59975;DHT22;62136;-35.664;-63.766;2022-12-13T04:44:22;27.10;32.90
59975;DHT22;62136;-35.664;-63.766;2022-12-13T04:46:49;27.10;32.90
59975;DHT22;62136;-35.664;-63.766;2022-12-13T04:49:16;27.00;33.00
59975;DHT22;62136;-35.664;-63.766;2022-12-13T04:51:43;27.00;33.50
59975;DHT22;62136;-35.664;-63.766;2022-12-13T04:54:10;27.00;33.10
59975;DHT22;62136;-35.664;-63.766;2022-12-13T04:56:37;26.90;32.90
59975;DHT22;62136;-35.664;-63.766;2022-12-13T04:59:04;26.90;33.00
59975;DHT22;62136;-35.664;-63.766;2022-12-13T05:01:31;27.00;33.10
59975;DHT22;62136;-35.664;-63.766;2022-12-13T05:04:02;26.90;33.10
59975;DHT22;62136;-35.664;-63.766;2022-12-13T05:06:29;26.90;33.20
59975;DHT22;62136;-35.664;-63.766;2022-12-13T05:08:56;26.90;33.20
59975;DHT22;62136;-35.664;-63.766;2022-12-13T05:11:23;26.90;33.00
59975;DHT22;62136;-35.664;-63.766;2022-12-13T05:13:50;26.90;33.10
59975;DHT22;62136;-35.664;-63.766;2022-12-13T05:16:17;26.90;33.20
59975;DHT22;62136;-35.664;-63.766;2022-12-13T05:18:44;26.80;33.10
59975;DHT22;62136;-35.664;-63.766;2022-12-13T05:21:12;26.80;33.20
59975;DHT22;62136;-35.664;-63.766;2022-12-13T05:23:39;26.80;33.10
59975;DHT22;62136;-35.664;-63.766;2022-12-13T05:26:06;26.80;33.30
59975;DHT22;62136;-35.664;-63.766;2022-12-13T05:28:33;26.80;33.40
59975;DHT22;62136;-35.664;-63.766;2022-12-13T05:31:09;26.70;33.30
59975;DHT22;62136;-35.664;-63.766;2022-12-13T05:33:37;26.70;33.30
59975;DHT22;62136;-35.664;-63.766;2022-12-13T05:36:04;26.70;33.30
59975;DHT22;62136;-35.664;-63.766;2022-12-13T05:38:32;26.70;33.40
59975;DHT22;62136;-35.664;-63.766;2022-12-13T05:40:59;26.70;33.30
59975;DHT22;62136;-35.664;-63.766;2022-12-13T05:43:26;26.70;33.40
59975;DHT22;62136;-35.664;-63.766;2022-12-13T05:45:53;26.70;33.90
59975;DHT22;62136;-35.664;-63.766;2022-12-13T05:48:20;26.70;33.50
59975;DHT22;62136;-35.664;-63.766;2022-12-13T05:50:47;26.60;33.40
59975;DHT22;62136;-35.664;-63.766;2022-12-13T05:53:14;26.60;33.50
59975;DHT22;62136;-35.664;-63.766;2022-12-13T05:55:42;26.60;33.50
59975;DHT22;62136;-35.664;-63.766;2022-12-13T05:58:09;26.60;33.50
59975;DHT22;62136;-35.664;-63.766;2022-12-13T06:00:38;26.60;33.90
59975;DHT22;62136;-35.664;-63.766;2022-12-13T06:03:05;26.50;33.60
59975;DHT22;62136;-35.664;-63.766;2022-12-13T06:05:32;26.50;33.40
59975;DHT22;62136;-35.664;-63.766;2022-12-13T06:07:59;26.50;33.50
59975;DHT22;62136;-35.664;-63.766;2022-12-13T06:10:27;26.50;33.50
59975;DHT22;62136;-35.664;-63.766;2022-12-13T06:12:54;26.50;33.60
59975;DHT22;62136;-35.664;-63.766;2022-12-13T06:15:21;26.50;33.60
59975;DHT22;62136;-35.664;-63.766;2022-12-13T06:17:48;26.50;33.60
59975;DHT22;62136;-35.664;-63.766;2022-12-13T06:20:15;26.50;34.20
59975;DHT22;62136;-35.664;-63.766;2022-12-13T06:22:43;26.40;33.60
59975;DHT22;62136;-35.664;-63.766;2022-12-13T06:25:10;26.40;33.70
59975;DHT22;62136;-35.664;-63.766;2022-12-13T06:27:37;26.40;33.70
59975;DHT22;62136;-35.664;-63.766;2022-12-13T06:30:04;26.40;33.70
59975;DHT22;62136;-35.664;-63.766;2022-12-13T06:32:32;26.40;33.70
59975;DHT22;62136;-35.664;-63.766;2022-12-13T06:34:59;26.40;33.70
59975;DHT22;62136;-35.664;-63.766;2022-12-13T06:37:26;26.30;33.80
59975;DHT22;62136;-35.664;-63.766;2022-12-13T06:39:53;26.30;33.80
59975;DHT22;62136;-35.664;-63.766;2022-12-13T06:42:20;26.30;34.00
59975;DHT22;62136;-35.664;-63.766;2022-12-13T06:44:47;26.30;33.90
59975;DHT22;62136;-35.664;-63.766;2022-12-13T06:47:17;26.30;33.80
59975;DHT22;62136;-35.664;-63.766;2022-12-13T06:49:44;26.30;33.90
59975;DHT22;62136;-35.664;-63.766;2022-12-13T06:52:12;26.30;34.00
59975;DHT22;62136;-35.664;-63.766;2022-12-13T06:54:41;26.30;34.00
59975;DHT22;62136;-35.664;-63.766;2022-12-13T06:57:09;26.20;34.00
59975;DHT22;62136;-35.664;-63.766;2022-12-13T06:59:36;26.20;34.10
59975;DHT22;62136;-35.664;-63.766;2022-12-13T07:02:03;26.20;34.10
59975;DHT22;62136;-35.664;-63.766;2022-12-13T07:04:31;26.20;34.20
59975;DHT22;62136;-35.664;-63.766;2022-12-13T07:06:58;26.20;34.10
59975;DHT22;62136;-35.664;-63.766;2022-12-13T07:09:25;26.20;34.20
59975;DHT22;62136;-35.664;-63.766;2022-12-13T07:11:53;26.10;34.20
59975;DHT22;62136;-35.664;-63.766;2022-12-13T07:14:20;26.10;34.20
59975;DHT22;62136;-35.664;-63.766;2022-12-13T07:16:48;26.10;34.30
59975;DHT22;62136;-35.664;-63.766;2022-12-13T07:19:15;26.10;34.30
59975;DHT22;62136;-35.664;-63.766;2022-12-13T07:21:41;26.10;34.30
59975;DHT22;62136;-35.664;-63.766;2022-12-13T07:24:08;26.00;34.30
59975;DHT22;62136;-35.664;-63.766;2022-12-13T07:26:35;26.00;34.30
59975;DHT22;62136;-35.664;-63.766;2022-12-13T07:29:03;26.00;34.50
59975;DHT22;62136;-35.664;-63.766;2022-12-13T07:31:33;26.00;34.50
59975;DHT22;62136;-35.664;-63.766;2022-12-13T07:34:00;26.00;34.50
59975;DHT22;62136;-35.664;-63.766;2022-12-13T07:36:27;26.00;34.60
59975;DHT22;62136;-35.664;-63.766;2022-12-13T07:38:55;25.90;34.50
59975;DHT22;62136;-35.664;-63.766;2022-12-13T07:41:24;25.90;34.60
59975;DHT22;62136;-35.664;-63.766;2022-12-13T07:43:52;25.90;34.60
59975;DHT22;62136;-35.664;-63.766;2022-12-13T07:46:19;25.90;34.60
59975;DHT22;62136;-35.664;-63.766;2022-12-13T07:48:46;25.90;34.70
59975;DHT22;62136;-35.664;-63.766;2022-12-13T07:51:13;25.90;34.70
59975;DHT22;62136;-35.664;-63.766;2022-12-13T07:53:40;25.90;34.80
59975;DHT22;62136;-35.664;-63.766;2022-12-13T07:56:10;25.90;34.50
59975;DHT22;62136;-35.664;-63.766;2022-12-13T07:58:38;25.90;34.90
59975;DHT22;62136;-35.664;-63.766;2022-12-13T08:01:08;25.80;34.80
59975;DHT22;62136;-35.664;-63.766;2022-12-13T08:03:37;25.80;34.90
59975;DHT22;62136;-35.664;-63.766;2022-12-13T08:06:08;25.80;34.90
59975;DHT22;62136;-35.664;-63.766;2022-12-13T08:08:36;25.80;35.00
59975;DHT22;62136;-35.664;-63.766;2022-12-13T08:11:13;25.80;35.00
59975;DHT22;62136;-35.664;-63.766;2022-12-13T08:13:43;25.70;35.00
59975;DHT22;62136;-35.664;-63.766;2022-12-13T08:16:12;25.70;35.00
59975;DHT22;62136;-35.664;-63.766;2022-12-13T08:18:44;25.70;35.10
59975;DHT22;62136;-35.664;-63.766;2022-12-13T08:21:13;25.70;35.10
59975;DHT22;62136;-35.664;-63.766;2022-12-13T08:23:40;25.70;35.10
59975;DHT22;62136;-35.664;-63.766;2022-12-13T08:26:08;25.70;35.20
59975;DHT22;62136;-35.664;-63.766;2022-12-13T08:28:35;25.70;35.10
59975;DHT22;62136;-35.664;-63.766;2022-12-13T08:31:05;25.60;35.20
59975;DHT22;62136;-35.664;-63.766;2022-12-13T08:33:33;25.60;35.30
59975;DHT22;62136;-35.664;-63.766;2022-12-13T08:36:11;25.60;35.30
59975;DHT22;62136;-35.664;-63.766;2022-12-13T08:38:38;25.60;35.40
59975;DHT22;62136;-35.664;-63.766;2022-12-13T08:41:05;25.60;35.40
59975;DHT22;62136;-35.664;-63.766;2022-12-13T08:43:33;25.60;35.50
59975;DHT22;62136;-35.664;-63.766;2022-12-13T08:46:00;25.50;35.50
59975;DHT22;62136;-35.664;-63.766;2022-12-13T08:48:28;25.50;35.50
59975;DHT22;62136;-35.664;-63.766;2022-12-13T08:51:03;25.50;35.60
59975;DHT22;62136;-35.664;-63.766;2022-12-13T08:53:30;25.50;35.60
59975;DHT22;62136;-35.664;-63.766;2022-12-13T08:56:01;25.50;35.60
59975;DHT22;62136;-35.664;-63.766;2022-12-13T08:58:29;25.50;35.60
59975;DHT22;62136;-35.664;-63.766;2022-12-13T09:00:57;25.50;35.70
59975;DHT22;62136;-35.664;-63.766;2022-12-13T09:03:24;25.40;35.70
59975;DHT22;62136;-35.664;-63.766;2022-12-13T09:05:51;25.50;35.80
59975;DHT22;62136;-35.664;-63.766;2022-12-13T09:08:18;25.40;35.70
59975;DHT22;62136;-35.664;-63.766;2022-12-13T09:10:45;25.40;35.80
59975;DHT22;62136;-35.664;-63.766;2022-12-13T09:13:12;25.40;35.80
59975;DHT22;62136;-35.664;-63.766;2022-12-13T09:15:39;25.40;35.80
59975;DHT22;62136;-35.664;-63.766;2022-12-13T09:18:06;25.30;35.80
59975;DHT22;62136;-35.664;-63.766;2022-12-13T09:20:34;25.40;35.90
59975;DHT22;62136;-35.664;-63.766;2022-12-13T09:23:03;25.30;36.00
59975;DHT22;62136;-35.664;-63.766;2022-12-13T09:25:31;25.30;36.00
59975;DHT22;62136;-35.664;-63.766;2022-12-13T09:27:58;25.30;36.00
59975;DHT22;62136;-35.664;-63.766;2022-12-13T09:30:27;25.30;35.90
59975;DHT22;62136;-35.664;-63.766;2022-12-13T09:32:55;25.30;36.10
59975;DHT22;62136;-35.664;-63.766;2022-12-13T09:35:22;25.30;36.10
59975;DHT22;62136;-35.664;-63.766;2022-12-13T09:37:50;25.30;36.00
59975;DHT22;62136;-35.664;-63.766;2022-12-13T09:40:24;25.30;36.10
59975;DHT22;62136;-35.664;-63.766;2022-12-13T09:42:54;25.20;36.10
59975;DHT22;62136;-35.664;-63.766;2022-12-13T09:45:22;25.30;36.20
59975;DHT22;62136;-35.664;-63.766;2022-12-13T09:47:51;25.20;36.20
59975;DHT22;62136;-35.664;-63.766;2022-12-13T09:50:27;25.20;36.10
59975;DHT22;62136;-35.664;-63.766;2022-12-13T09:52:55;25.20;36.20
59975;DHT22;62136;-35.664;-63.766;2022-12-13T09:55:26;25.20;36.30
59975;DHT22;62136;-35.664;-63.766;2022-12-13T09:57:59;25.20;36.30
59975;DHT22;62136;-35.664;-63.766;2022-12-13T10:00:34;25.20;36.30
59975;DHT22;62136;-35.664;-63.766;2022-12-13T10:03:02;25.20;36.40
59975;DHT22;62136;-35.664;-63.766;2022-12-13T10:05:36;25.20;36.50
59975;DHT22;62136;-35.664;-63.766;2022-12-13T10:08:11;25.20;36.40
59975;DHT22;62136;-35.664;-63.766;2022-12-13T10:10:39;25.20;36.40
59975;DHT22;62136;-35.664;-63.766;2022-12-13T10:16:03;25.20;36.50
59975;DHT22;62136;-35.664;-63.766;2022-12-13T10:18:38;25.20;36.50
59975;DHT22;62136;-35.664;-63.766;2022-12-13T10:23:52;25.20;36.50
59975;DHT22;62136;-35.664;-63.766;2022-12-13T10:26:20;25.20;36.50
59975;DHT22;62136;-35.664;-63.766;2022-12-13T10:28:47;25.20;36.60
59975;DHT22;62136;-35.664;-63.766;2022-12-13T10:31:18;25.30;36.60
59975;DHT22;62136;-35.664;-63.766;2022-12-13T10:33:54;25.30;36.60
59975;DHT22;62136;-35.664;-63.766;2022-12-13T10:36:33;25.30;36.60
59975;DHT22;62136;-35.664;-63.766;2022-12-13T10:39:02;25.20;36.50
59975;DHT22;62136;-35.664;-63.766;2022-12-13T10:41:37;25.30;36.60
59975;DHT22;62136;-35.664;-63.766;2022-12-13T10:46:42;25.30;36.70
59975;DHT22;62136;-35.664;-63.766;2022-12-13T10:49:20;25.30;36.70
59975;DHT22;62136;-35.664;-63.766;2022-12-13T10:51:49;25.30;36.70
59975;DHT22;62136;-35.664;-63.766;2022-12-13T10:54:30;25.30;36.70
59975;DHT22;62136;-35.664;-63.766;2022-12-13T10:56:59;25.30;36.70
59975;DHT22;62136;-35.664;-63.766;2022-12-13T10:59:37;25.30;36.80
59975;DHT22;62136;-35.664;-63.766;2022-12-13T11:02:38;25.20;37.30
59975;DHT22;62136;-35.664;-63.766;2022-12-13T11:05:33;25.10;37.70
59975;DHT22;62136;-35.664;-63.766;2022-12-13T11:08:23;25.00;37.70
59975;DHT22;62136;-35.664;-63.766;2022-12-13T11:11:03;25.00;37.70
59975;DHT22;62136;-35.664;-63.766;2022-12-13T11:13:53;25.00;37.90
59975;DHT22;62136;-35.664;-63.766;2022-12-13T11:16:24;25.00;38.00
59975;DHT22;62136;-35.664;-63.766;2022-12-13T11:18:58;25.00;38.30
59975;DHT22;62136;-35.664;-63.766;2022-12-13T11:21:28;24.90;37.90
59975;DHT22;62136;-35.664;-63.766;2022-12-13T11:24:02;24.90;38.40
59975;DHT22;62136;-35.664;-63.766;2022-12-13T11:26:37;24.90;38.60
59975;DHT22;62136;-35.664;-63.766;2022-12-13T11:29:19;24.90;38.50
59975;DHT22;62136;-35.664;-63.766;2022-12-13T11:31:53;24.90;38.50
59975;DHT22;62136;-35.664;-63.766;2022-12-13T11:34:30;24.90;38.40
59975;DHT22;62136;-35.664;-63.766;2022-12-13T11:37:25;24.90;38.70
59975;DHT22;62136;-35.664;-63.766;2022-12-13T11:43:14;24.90;38.80
59975;DHT22;62136;-35.664;-63.766;2022-12-13T11:45:48;24.90;39.00
59975;DHT22;62136;-35.664;-63.766;2022-12-13T11:48:27;24.90;38.50
59975;DHT22;62136;-35.664;-63.766;2022-12-13T11:50:56;24.90;38.60
59975;DHT22;62136;-35.664;-63.766;2022-12-13T11:53:33;24.90;38.70
59975;DHT22;62136;-35.664;-63.766;2022-12-13T12:01:20;25.00;38.80
59975;DHT22;62136;-35.664;-63.766;2022-12-13T12:03:53;25.00;38.90
59975;DHT22;62136;-35.664;-63.766;2022-12-13T12:06:33;25.00;39.00
59975;DHT22;62136;-35.664;-63.766;2022-12-13T12:09:10;25.10;39.00
59975;DHT22;62136;-35.664;-63.766;2022-12-13T12:17:26;25.00;38.70
59975;DHT22;62136;-35.664;-63.766;2022-12-13T12:19:56;25.00;38.80
59975;DHT22;62136;-35.664;-63.766;2022-12-13T12:25:26;24.90;38.50
59975;DHT22;62136;-35.664;-63.766;2022-12-13T12:39:42;25.10;40.50
59975;DHT22;62136;-35.664;-63.766;2022-12-13T12:42:28;25.20;40.70
59975;DHT22;62136;-35.664;-63.766;2022-12-13T12:45:03;25.20;40.60
59975;DHT22;62136;-35.664;-63.766;2022-12-13T12:47:47;25.20;39.60
59975;DHT22;62136;-35.664;-63.766;2022-12-13T13:04:07;25.10;39.30
59975;DHT22;62136;-35.664;-63.766;2022-12-13T13:06:55;25.10;40.30
59975;DHT22;62136;-35.664;-63.766;2022-12-13T13:09:25;25.10;39.10
59975;DHT22;62136;-35.664;-63.766;2022-12-13T13:11:53;25.10;38.90
59975;DHT22;62136;-35.664;-63.766;2022-12-13T13:22:35;25.10;39.20
59975;DHT22;62136;-35.664;-63.766;2022-12-13T13:27:43;25.10;38.90
59975;DHT22;62136;-35.664;-63.766;2022-12-13T13:30:23;25.20;37.80
59975;DHT22;62136;-35.664;-63.766;2022-12-13T13:32:56;25.20;37.90
59975;DHT22;62136;-35.664;-63.766;2022-12-13T13:40:46;25.20;38.30
59975;DHT22;62136;-35.664;-63.766;2022-12-13T13:43:15;25.20;36.80
59975;DHT22;62136;-35.664;-63.766;2022-12-13T13:46:09;25.20;37.30
59975;DHT22;62136;-35.664;-63.766;2022-12-13T13:54:05;25.20;36.50
59975;DHT22;62136;-35.664;-63.766;2022-12-13T13:59:41;25.20;36.30
59975;DHT22;62136;-35.664;-63.766;2022-12-13T14:10:49;25.40;34.70
59975;DHT22;62136;-35.664;-63.766;2022-12-13T14:13:57;25.40;35.10
59975;DHT22;62136;-35.664;-63.766;2022-12-13T14:22:46;25.30;34.30
59975;DHT22;62136;-35.664;-63.766;2022-12-13T14:28:42;25.30;33.60
59975;DHT22;62136;-35.664;-63.766;2022-12-13T14:32:05;25.30;34.30
59975;DHT22;62136;-35.664;-63.766;2022-12-13T14:34:37;25.30;33.70
59975;DHT22;62136;-35.664;-63.766;2022-12-13T14:37:18;25.30;33.50
59975;DHT22;62136;-35.664;-63.766;2022-12-13T14:39:45;25.40;34.40
59975;DHT22;62136;-35.664;-63.766;2022-12-13T14:42:30;25.30;34.20
59975;DHT22;62136;-35.664;-63.766;2022-12-13T14:45:31;25.40;34.10
59975;DHT22;62136;-35.664;-63.766;2022-12-13T14:48:04;25.40;34.20
59975;DHT22;62136;-35.664;-63.766;2022-12-13T14:50:34;25.40;34.00
59975;DHT22;62136;-35.664;-63.766;2022-12-13T14:53:03;25.40;34.00
59975;DHT22;62136;-35.664;-63.766;2022-12-13T14:55:33;25.50;34.50
59975;DHT22;62136;-35.664;-63.766;2022-12-13T14:58:25;25.50;33.40
59975;DHT22;62136;-35.664;-63.766;2022-12-13T15:00:53;25.50;33.40
59975;DHT22;62136;-35.664;-63.766;2022-12-13T15:03:24;25.60;33.50
59975;DHT22;62136;-35.664;-63.766;2022-12-13T15:05:59;25.60;33.70
59975;DHT22;62136;-35.664;-63.766;2022-12-13T15:08:27;25.70;33.80
59975;DHT22;62136;-35.664;-63.766;2022-12-13T15:10:56;25.70;33.00
59975;DHT22;62136;-35.664;-63.766;2022-12-13T15:16:06;25.80;33.30
59975;DHT22;62136;-35.664;-63.766;2022-12-13T15:18:35;25.80;33.20
59975;DHT22;62136;-35.664;-63.766;2022-12-13T15:21:12;25.90;33.50
59975;DHT22;62136;-35.664;-63.766;2022-12-13T15:23:43;25.90;33.20
59975;DHT22;62136;-35.664;-63.766;2022-12-13T15:26:21;25.90;33.30
59975;DHT22;62136;-35.664;-63.766;2022-12-13T15:28:53;25.90;33.30
59975;DHT22;62136;-35.664;-63.766;2022-12-13T15:31:21;26.00;33.40
59975;DHT22;62136;-35.664;-63.766;2022-12-13T15:33:49;26.00;33.10
59975;DHT22;62136;-35.664;-63.766;2022-12-13T15:36:22;26.00;33.20
59975;DHT22;62136;-35.664;-63.766;2022-12-13T15:44:16;26.10;33.30
59975;DHT22;62136;-35.664;-63.766;2022-12-13T15:46:50;26.10;33.30
59975;DHT22;62136;-35.664;-63.766;2022-12-13T15:52:24;26.20;33.20
59975;DHT22;62136;-35.664;-63.766;2022-12-13T15:57:54;26.20;33.10
59975;DHT22;62136;-35.664;-63.766;2022-12-13T16:00:30;26.20;33.10
59975;DHT22;62136;-35.664;-63.766;2022-12-13T16:03:13;26.30;33.20
59975;DHT22;62136;-35.664;-63.766;2022-12-13T16:05:52;26.30;33.30
59975;DHT22;62136;-35.664;-63.766;2022-12-13T16:08:29;26.30;32.80
59975;DHT22;62136;-35.664;-63.766;2022-12-13T16:10:57;26.40;33.20
59975;DHT22;62136;-35.664;-63.766;2022-12-13T16:13:36;26.40;33.30
59975;DHT22;62136;-35.664;-63.766;2022-12-13T16:18:58;26.50;34.00
59975;DHT22;62136;-35.664;-63.766;2022-12-13T16:21:26;26.50;33.80
59975;DHT22;62136;-35.664;-63.766;2022-12-13T16:23:53;26.50;34.20
59975;DHT22;62136;-35.664;-63.766;2022-12-13T16:26:26;26.50;34.10
59975;DHT22;62136;-35.664;-63.766;2022-12-13T16:28:54;26.50;33.70
59975;DHT22;62136;-35.664;-63.766;2022-12-13T16:31:26;26.50;34.00
59975;DHT22;62136;-35.664;-63.766;2022-12-13T16:33:56;26.60;34.10
59975;DHT22;62136;-35.664;-63.766;2022-12-13T16:36:23;26.60;33.70
59975;DHT22;62136;-35.664;-63.766;2022-12-13T16:38:50;26.60;34.00
59975;DHT22;62136;-35.664;-63.766;2022-12-13T16:41:17;26.60;34.00
59975;DHT22;62136;-35.664;-63.766;2022-12-13T16:43:59;26.70;33.80
59975;DHT22;62136;-35.664;-63.766;2022-12-13T16:46:27;26.70;33.70
59975;DHT22;62136;-35.664;-63.766;2022-12-13T16:48:54;26.70;34.00
59975;DHT22;62136;-35.664;-63.766;2022-12-13T16:51:21;26.70;34.00
59975;DHT22;62136;-35.664;-63.766;2022-12-13T16:53:49;26.70;33.90
59975;DHT22;62136;-35.664;-63.766;2022-12-13T16:56:18;26.70;34.00
59975;DHT22;62136;-35.664;-63.766;2022-12-13T16:58:48;26.70;33.90
59975;DHT22;62136;-35.664;-63.766;2022-12-13T17:01:18;26.70;34.30
59975;DHT22;62136;-35.664;-63.766;2022-12-13T17:03:45;26.70;34.20
59975;DHT22;62136;-35.664;-63.766;2022-12-13T17:06:14;26.70;34.20
59975;DHT22;62136;-35.664;-63.766;2022-12-13T17:08:43;26.80;34.10
59975;DHT22;62136;-35.664;-63.766;2022-12-13T17:11:10;26.80;34.30
59975;DHT22;62136;-35.664;-63.766;2022-12-13T17:13:37;26.80;34.20
59975;DHT22;62136;-35.664;-63.766;2022-12-13T17:16:05;26.80;34.00
59975;DHT22;62136;-35.664;-63.766;2022-12-13T17:18:32;26.70;33.80
59975;DHT22;62136;-35.664;-63.766;2022-12-13T17:21:08;26.80;34.10
59975;DHT22;62136;-35.664;-63.766;2022-12-13T17:23:39;26.90;33.80
59975;DHT22;62136;-35.664;-63.766;2022-12-13T17:26:08;27.10;33.60